Search for airport 
image banner adimage banner adimage banner ad
image banner ad

PA38 - Beaver Run Heliport

Located in Quakertown, United States

ICAO - PA38, IATA -

Data provided by Airmate  

General information

Coordinates: N40°1'29" W79°34'34"
Elevation is 1062 feet MSL.
 
View others Airports in Pennsylvania

Operational data

Special qualification required
Current time UTC:
Current local time:
Weather at : KLBE - Arnold Palmer Rgnl ( 31 km )
METAR: KLBE 150615Z AUTO 00000KT 6SM BR FEW080 14/14 A2990 RMK AO2
TAF: KLBE 150536Z 1506/1606 00000KT 4SM BR SCT002 TEMPO 1509/1512 1/2SM FG BKN001 FM151300 30006KT P6SM SCT040 FM151600 30009G17KT P6SM SCT050 FM160000 31007KT P6SM SCT150
View NOTAMs / SUP AIP / TFR affecting this airport [VIEW]
Communications frequencies: [VIEW]

Runways:

Airport contact information

Address: Quakertown United States

Satellite view of PA38